KFET/FET METAR and TAF weather

Enter ICAO airport designator
Station Type Date Time Source
KFET METAR 2023/02/05 23:15 UTC NOAA

KFET 052315Z AUTO 00000KT 10SM CLR 04/00 A3008 RMK AO2 T00390000


Station Type Date Time Source
KFET Decoded METAR 2023/02/05 23:15 UTC NOAA

Fremont Municipal Airport, NE, United States (KFET) 41-27N 096-31W
Feb 05, 2023 - 06:15 PM EST / 2023.02.05 2315 UTC
Wind: Calm:0
Visibility: 10 mile(s):0
Sky conditions: clear
Temperature: 39.0 F (3.9 C)
Dew Point: 32.0 F (0.0 C)
Relative Humidity: 75%
Pressure (altimeter): 30.08 in. Hg (1018 hPa)
ob: KFET 052315Z AUTO 00000KT 10SM CLR 04/00 A3008 RMK AO2 T00390000
cycle: 23

Station Type Date Time Source
KFET TAF UTC NOAA

Error!

Example: see airport list